首页
METAR-TAF:

METAR-TAF

机场 :

温斯顿-塞勒姆, 北卡罗来纳州, 美国

纬度: 36-08-00N, 经度: 080-13-29W, 海拔: 295米

当前天气观测

该预报发布于27分钟前的19:22 UTC
风速4节,风向
温度 27°C
湿度 66%
气压 1023 hPa
能見度: 16.1公里
散云层高于2600英尺
阴天层高于4000英尺

METAR: KINT 251922Z 01004KT 10SM SCT026 OVC040 27/20 A3020 RMK AO2 T02670200

时间: 15:49 (19:49 UTC)

预报

该预报发布于1小时和32分钟前的18:17 UTC
预报有效从25日的 18点(UTC)到 26日的 18点(UTC)
风速节,风向
能見度: 10公里
少量云层高于2700英尺
多云层高于3500英尺
从 25日的 2100点(UTC)
风速节,风向
能見度: 10公里
散云层高于2500英尺
从 26日的 0600点(UTC)
风速节,风向
能見度: 8.0公里
阴天层高于10000英尺
轻雾
从 26日的 1000点(UTC)
风速节,风向
能見度: 8.0公里
多云层高于2000英尺
轻雾
从 26日的 1400点(UTC)
风速6节,风向西南
能見度: 10公里
阴天层高于3500英尺

TAF: KINT 251817Z 2518/2618 00000KT P6SM FEW027 BKN035 FM252100 00000KT P6SM SCT025 FM260600 00000KT 5SM BR OVC100 FM261000 00000KT 5SM BR BKN020 FM261400 23006KT P6SM OVC035

超过4000个机场的气象观测和天气预报(METAR&TAF报告)。

可查询的气象台以黄色和红色小点在地图上表示。

将鼠标移到小点上方,可查看气象台名称。

然后点击查看天气观测和预报。

如需切换地图:点击带黑十字的绿色按钮放大地图;点击带横线的绿色按钮缩小地图;或者点击绿色箭头查看邻近地区的地图。


METAR-TAF: